ACA343 CYOW-CYVR
Flight info
| Callsign | ACA343 |
|---|---|
| Flight time | N/A |
| Altitude | 34000 |
| Route | RADEN DCT YUY DCT 5084N DCT 52N092W DCT POPLR DCT REFEX/N0446F360 DCT NADPI DCT BOOTH CANUC6 |
| Aircraft | A321/M-SDE3FGHIJ7M3P2RWY/LB1 |
Departure
| Time | 2026-05-07 17:14 |
|---|---|
| Airport | Ottawa Macdonald-Cartier International Airport (CYOW) |
Arrival
| Time | N/A |
|---|---|
| Airport | Vancouver International Airport (CYVR) |
| Time | Latitude | Longitude | Altitude | Speed | Heading |
|---|---|---|---|---|---|
| 2026-05-07 16:17 | 45.32150 | -75.66764 | 398 ft | 0 kts | 37° |
| 2026-05-07 17:01 | 45.32145 | -75.66769 | 389 ft | 3 kts | 37° |
| 2026-05-07 17:01 | 45.32129 | -75.66786 | 389 ft | 3 kts | 37° |
| 2026-05-07 17:02 | 45.32112 | -75.66803 | 389 ft | 3 kts | 37° |
| 2026-05-07 17:02 | 45.32096 | -75.66820 | 389 ft | 3 kts | 37° |
| 2026-05-07 17:02 | 45.32080 | -75.66838 | 390 ft | 3 kts | 37° |
| 2026-05-07 17:02 | 45.32077 | -75.66841 | 390 ft | 0 kts | 37° |
| 2026-05-07 17:06 | 45.32077 | -75.66830 | 390 ft | 1 kts | 95° |
| 2026-05-07 17:06 | 45.32062 | -75.66814 | 389 ft | 5 kts | 141° |
| 2026-05-07 17:06 | 45.32035 | -75.66770 | 389 ft | 6 kts | 124° |
| 2026-05-07 17:06 | 45.32010 | -75.66720 | 389 ft | 7 kts | 127° |
| 2026-05-07 17:07 | 45.31983 | -75.66668 | 390 ft | 8 kts | 127° |
| 2026-05-07 17:07 | 45.31951 | -75.66607 | 390 ft | 8 kts | 126° |
| 2026-05-07 17:07 | 45.31916 | -75.66540 | 389 ft | 9 kts | 126° |
| 2026-05-07 17:07 | 45.31879 | -75.66468 | 387 ft | 9 kts | 120° |
| 2026-05-07 17:08 | 45.31888 | -75.66393 | 387 ft | 8 kts | 58° |
| 2026-05-07 17:08 | 45.31915 | -75.66334 | 387 ft | 7 kts | 57° |
| 2026-05-07 17:08 | 45.31934 | -75.66292 | 387 ft | 10 kts | 57° |
| 2026-05-07 17:08 | 45.31979 | -75.66191 | 385 ft | 13 kts | 57° |
| 2026-05-07 17:09 | 45.32041 | -75.66053 | 384 ft | 11 kts | 58° |
| 2026-05-07 17:09 | 45.32079 | -75.65965 | 384 ft | 10 kts | 58° |
| 2026-05-07 17:09 | 45.32106 | -75.65906 | 384 ft | 12 kts | 56° |
| 2026-05-07 17:09 | 45.32162 | -75.65785 | 383 ft | 10 kts | 57° |
| 2026-05-07 17:10 | 45.32185 | -75.65735 | 384 ft | 8 kts | 57° |
| 2026-05-07 17:10 | 45.32222 | -75.65653 | 385 ft | 12 kts | 57° |
| 2026-05-07 17:10 | 45.32274 | -75.65537 | 384 ft | 16 kts | 58° |
| 2026-05-07 17:10 | 45.32330 | -75.65409 | 385 ft | 14 kts | 58° |
| 2026-05-07 17:11 | 45.32380 | -75.65298 | 384 ft | 13 kts | 57° |
| 2026-05-07 17:11 | 45.32439 | -75.65169 | 382 ft | 17 kts | 57° |
| 2026-05-07 17:11 | 45.32499 | -75.65038 | 381 ft | 15 kts | 57° |
| 2026-05-07 17:11 | 45.32557 | -75.64907 | 378 ft | 16 kts | 58° |
| 2026-05-07 17:12 | 45.32593 | -75.64792 | 378 ft | 10 kts | 89° |
| 2026-05-07 17:12 | 45.32581 | -75.64695 | 379 ft | 10 kts | 102° |
| 2026-05-07 17:12 | 45.32563 | -75.64604 | 378 ft | 9 kts | 116° |
| 2026-05-07 17:12 | 45.32520 | -75.64548 | 379 ft | 7 kts | 145° |
| 2026-05-07 17:13 | 45.32490 | -75.64551 | 380 ft | 4 kts | 223° |
| 2026-05-07 17:13 | 45.32479 | -75.64576 | 380 ft | 4 kts | 238° |
| 2026-05-07 17:13 | 45.32422 | -75.64704 | 378 ft | 41 kts | 237° |
| 2026-05-07 17:13 | 45.32136 | -75.65337 | 383 ft | 109 kts | 237° |
| 2026-05-07 17:14 | 45.31633 | -75.66475 | 400 ft | 159 kts | 239° |
| 2026-05-07 17:14 | 45.31059 | -75.67794 | 1089 ft | 155 kts | 243° |
| 2026-05-07 17:14 | 45.30502 | -75.69112 | 1790 ft | 155 kts | 245° |
| 2026-05-07 17:14 | 45.29917 | -75.70524 | 1938 ft | 176 kts | 244° |
| 2026-05-07 17:15 | 45.29266 | -75.72097 | 2074 ft | 197 kts | 243° |
| 2026-05-07 17:15 | 45.28511 | -75.73867 | 2231 ft | 222 kts | 242° |
| 2026-05-07 17:15 | 45.27698 | -75.75752 | 2871 ft | 226 kts | 244° |
| 2026-05-07 17:15 | 45.27279 | -75.77855 | 3520 ft | 224 kts | 275° |
| 2026-05-07 17:16 | 45.27830 | -75.79904 | 4142 ft | 229 kts | 309° |
| 2026-05-07 17:16 | 45.29127 | -75.81240 | 4874 ft | 237 kts | 334° |
| 2026-05-07 17:16 | 45.30741 | -75.81897 | 5515 ft | 246 kts | 341° |
| 2026-05-07 17:16 | 45.32447 | -75.82487 | 6019 ft | 257 kts | 341° |
| 2026-05-07 17:17 | 45.34201 | -75.83101 | 6695 ft | 261 kts | 342° |
| 2026-05-07 17:17 | 45.35980 | -75.83714 | 7368 ft | 265 kts | 342° |
| 2026-05-07 17:17 | 45.37784 | -75.84321 | 8064 ft | 267 kts | 342° |
| 2026-05-07 17:17 | 45.39609 | -75.84924 | 8763 ft | 271 kts | 342° |
| 2026-05-07 17:18 | 45.41456 | -75.85532 | 9487 ft | 273 kts | 342° |
| 2026-05-07 17:18 | 45.43321 | -75.86143 | 10155 ft | 276 kts | 342° |
| 2026-05-07 17:18 | 45.45257 | -75.86781 | 10367 ft | 297 kts | 342° |
| 2026-05-07 17:18 | 45.47324 | -75.87469 | 10514 ft | 319 kts | 342° |
| 2026-05-07 17:19 | 45.49534 | -75.88202 | 10896 ft | 330 kts | 343° |
| 2026-05-07 17:19 | 45.51790 | -75.88945 | 11494 ft | 334 kts | 343° |
| 2026-05-07 17:19 | 45.54075 | -75.89695 | 12106 ft | 337 kts | 343° |
| 2026-05-07 17:19 | 45.56372 | -75.90445 | 12728 ft | 341 kts | 342° |
| 2026-05-07 17:20 | 45.58696 | -75.91210 | 13364 ft | 344 kts | 342° |
| 2026-05-07 17:20 | 45.61036 | -75.91982 | 13938 ft | 347 kts | 342° |
| 2026-05-07 17:20 | 45.63404 | -75.92762 | 14480 ft | 350 kts | 342° |
| 2026-05-07 17:20 | 45.65756 | -75.93542 | 15014 ft | 353 kts | 342° |
| 2026-05-07 17:21 | 45.68193 | -75.94353 | 15566 ft | 356 kts | 342° |
| 2026-05-07 17:21 | 45.70611 | -75.95154 | 16111 ft | 359 kts | 342° |
| 2026-05-07 17:21 | 45.73029 | -75.95949 | 16613 ft | 362 kts | 342° |
| 2026-05-07 17:21 | 45.75505 | -75.96762 | 17135 ft | 366 kts | 342° |
| 2026-05-07 17:22 | 45.77995 | -75.97586 | 17657 ft | 369 kts | 342° |
| 2026-05-07 17:22 | 45.80505 | -75.98422 | 18164 ft | 372 kts | 342° |
| 2026-05-07 17:22 | 45.83033 | -75.99264 | 18603 ft | 374 kts | 342° |
| 2026-05-07 17:22 | 45.85584 | -76.00114 | 19047 ft | 377 kts | 342° |
| 2026-05-07 17:23 | 45.88151 | -76.00973 | 19477 ft | 379 kts | 342° |
| 2026-05-07 17:23 | 45.90723 | -76.01875 | 19900 ft | 380 kts | 338° |
| 2026-05-07 17:23 | 45.93157 | -76.03280 | 20314 ft | 376 kts | 327° |
| 2026-05-07 17:23 | 45.95351 | -76.05293 | 20737 ft | 373 kts | 317° |
| 2026-05-07 17:24 | 45.97334 | -76.07706 | 21152 ft | 374 kts | 315° |
| 2026-05-07 17:24 | 45.99312 | -76.10147 | 21568 ft | 376 kts | 315° |
| 2026-05-07 17:24 | 46.01278 | -76.12571 | 21984 ft | 378 kts | 315° |
| 2026-05-07 17:24 | 46.03282 | -76.15038 | 22388 ft | 380 kts | 315° |
| 2026-05-07 17:25 | 46.05298 | -76.17518 | 22790 ft | 383 kts | 315° |
| 2026-05-07 17:25 | 46.07327 | -76.20021 | 23193 ft | 385 kts | 315° |
| 2026-05-07 17:25 | 46.09370 | -76.22546 | 23559 ft | 387 kts | 315° |
| 2026-05-07 17:25 | 46.11417 | -76.25083 | 23890 ft | 389 kts | 315° |
| 2026-05-07 17:26 | 46.13471 | -76.27633 | 24194 ft | 391 kts | 315° |
| 2026-05-07 17:26 | 46.15539 | -76.30203 | 24511 ft | 393 kts | 315° |
| 2026-05-07 17:26 | 46.17619 | -76.32785 | 24791 ft | 396 kts | 315° |
| 2026-05-07 17:26 | 46.19717 | -76.35391 | 25076 ft | 399 kts | 315° |
| 2026-05-07 17:27 | 46.21833 | -76.38018 | 25356 ft | 401 kts | 315° |
| 2026-05-07 17:27 | 46.23925 | -76.40621 | 25642 ft | 403 kts | 315° |
| 2026-05-07 17:27 | 46.26060 | -76.43282 | 25929 ft | 405 kts | 315° |
| 2026-05-07 17:27 | 46.28201 | -76.45947 | 26202 ft | 407 kts | 315° |
| 2026-05-07 17:28 | 46.30354 | -76.48625 | 26482 ft | 409 kts | 315° |
| 2026-05-07 17:28 | 46.32517 | -76.51325 | 26756 ft | 411 kts | 315° |
| 2026-05-07 17:28 | 46.34681 | -76.54039 | 27026 ft | 413 kts | 315° |
| 2026-05-07 17:28 | 46.36861 | -76.56775 | 27298 ft | 415 kts | 315° |
| 2026-05-07 17:29 | 46.39052 | -76.59524 | 27593 ft | 417 kts | 314° |
| 2026-05-07 17:29 | 46.41258 | -76.62294 | 27813 ft | 420 kts | 315° |
| 2026-05-07 17:29 | 46.43468 | -76.65071 | 28046 ft | 422 kts | 315° |
| 2026-05-07 17:29 | 46.45701 | -76.67878 | 28285 ft | 424 kts | 315° |
| 2026-05-07 17:30 | 46.47931 | -76.70687 | 28515 ft | 426 kts | 315° |
| 2026-05-07 17:30 | 46.50147 | -76.73484 | 28738 ft | 428 kts | 315° |
| 2026-05-07 17:30 | 46.52399 | -76.76327 | 28970 ft | 430 kts | 315° |
| 2026-05-07 17:30 | 46.54666 | -76.79186 | 29204 ft | 432 kts | 315° |
| 2026-05-07 17:31 | 46.56935 | -76.82051 | 29438 ft | 433 kts | 315° |
| 2026-05-07 17:31 | 46.59210 | -76.84933 | 29647 ft | 435 kts | 315° |
| 2026-05-07 17:31 | 46.61496 | -76.87838 | 29947 ft | 435 kts | 315° |
| 2026-05-07 17:31 | 46.63769 | -76.90731 | 30230 ft | 434 kts | 315° |
| 2026-05-07 17:32 | 46.66043 | -76.93631 | 30448 ft | 435 kts | 315° |
| 2026-05-07 17:32 | 46.68327 | -76.96541 | 30696 ft | 435 kts | 315° |
| 2026-05-07 17:32 | 46.70604 | -76.99440 | 30938 ft | 435 kts | 315° |
| 2026-05-07 17:32 | 46.72888 | -77.02346 | 31172 ft | 435 kts | 315° |
| 2026-05-07 17:33 | 46.75139 | -77.05211 | 31408 ft | 435 kts | 315° |
| 2026-05-07 17:33 | 46.76962 | -77.07540 | 31595 ft | 435 kts | 315° |
| 2026-05-07 17:33 | 46.79311 | -77.10550 | 31831 ft | 435 kts | 315° |
| 2026-05-07 17:34 | 46.81583 | -77.13470 | 32061 ft | 435 kts | 315° |
| 2026-05-07 17:34 | 46.83859 | -77.16392 | 32293 ft | 435 kts | 315° |
| 2026-05-07 17:34 | 46.86137 | -77.19316 | 32522 ft | 435 kts | 315° |
| 2026-05-07 17:34 | 46.88410 | -77.22235 | 32758 ft | 435 kts | 315° |
| 2026-05-07 17:35 | 46.90653 | -77.25123 | 32940 ft | 436 kts | 315° |
| 2026-05-07 17:35 | 46.92938 | -77.28073 | 33143 ft | 436 kts | 315° |
| 2026-05-07 17:35 | 46.95211 | -77.31008 | 33351 ft | 436 kts | 315° |
| 2026-05-07 17:35 | 46.97489 | -77.33946 | 33558 ft | 436 kts | 315° |
| 2026-05-07 17:36 | 46.99764 | -77.36880 | 33773 ft | 436 kts | 314° |
| 2026-05-07 17:36 | 47.02043 | -77.39826 | 33875 ft | 436 kts | 314° |
| 2026-05-07 17:36 | 47.06566 | -77.45693 | 33890 ft | 432 kts | 314° |
| 2026-05-07 17:37 | 47.11068 | -77.51556 | 33890 ft | 432 kts | 314° |
| 2026-05-07 17:37 | 47.15565 | -77.57420 | 33885 ft | 433 kts | 315° |
| 2026-05-07 17:38 | 47.20040 | -77.63268 | 33885 ft | 433 kts | 315° |
| 2026-05-07 17:38 | 47.24541 | -77.69170 | 33888 ft | 433 kts | 314° |
| 2026-05-07 17:39 | 47.29044 | -77.75078 | 33901 ft | 434 kts | 315° |
| 2026-05-07 17:39 | 47.33553 | -77.80998 | 33896 ft | 434 kts | 314° |
| 2026-05-07 17:40 | 47.38031 | -77.86889 | 33895 ft | 434 kts | 314° |
| 2026-05-07 17:40 | 47.42536 | -77.92846 | 33893 ft | 434 kts | 315° |
| 2026-05-07 17:41 | 47.47027 | -77.98810 | 33891 ft | 434 kts | 315° |
| 2026-05-07 17:41 | 47.51513 | -78.04785 | 33885 ft | 434 kts | 314° |
| 2026-05-07 17:42 | 47.55976 | -78.10731 | 33886 ft | 433 kts | 315° |
| 2026-05-07 17:42 | 47.60464 | -78.16707 | 33879 ft | 433 kts | 314° |
| 2026-05-07 17:43 | 47.64943 | -78.22704 | 33888 ft | 433 kts | 315° |
| 2026-05-07 17:43 | 47.69415 | -78.28700 | 33879 ft | 433 kts | 315° |
| 2026-05-07 17:44 | 47.73880 | -78.34714 | 33873 ft | 433 kts | 315° |
| 2026-05-07 17:44 | 47.78352 | -78.40742 | 33871 ft | 434 kts | 315° |
| 2026-05-07 17:45 | 47.82804 | -78.46750 | 33867 ft | 434 kts | 315° |
| 2026-05-07 17:45 | 47.87271 | -78.52800 | 33885 ft | 434 kts | 315° |
| 2026-05-07 17:46 | 47.91742 | -78.58867 | 33880 ft | 434 kts | 315° |
| 2026-05-07 17:46 | 47.96202 | -78.64933 | 33876 ft | 434 kts | 315° |
| 2026-05-07 17:47 | 48.00636 | -78.70994 | 33878 ft | 435 kts | 315° |
| 2026-05-07 17:47 | 48.05096 | -78.77109 | 33845 ft | 435 kts | 315° |
| 2026-05-07 17:48 | 48.09554 | -78.83226 | 33836 ft | 435 kts | 315° |
| 2026-05-07 17:48 | 48.14018 | -78.89349 | 33846 ft | 435 kts | 315° |
| 2026-05-07 17:49 | 48.18105 | -78.95975 | 33846 ft | 431 kts | 301° |
| 2026-05-07 17:49 | 48.21172 | -79.03683 | 33847 ft | 431 kts | 299° |
| 2026-05-07 17:50 | 48.24232 | -79.11430 | 33849 ft | 431 kts | 299° |
| 2026-05-07 17:50 | 48.27291 | -79.19168 | 33853 ft | 431 kts | 299° |
| 2026-05-07 17:51 | 48.30325 | -79.26887 | 33869 ft | 431 kts | 299° |
| 2026-05-07 17:51 | 48.33367 | -79.34648 | 33866 ft | 431 kts | 299° |
| 2026-05-07 17:52 | 48.36405 | -79.42426 | 33865 ft | 431 kts | 298° |
| 2026-05-07 17:52 | 48.39429 | -79.50210 | 33869 ft | 431 kts | 298° |
| 2026-05-07 17:53 | 48.42453 | -79.58017 | 33863 ft | 431 kts | 298° |
| 2026-05-07 17:53 | 48.45469 | -79.65812 | 33866 ft | 431 kts | 298° |
| 2026-05-07 17:54 | 48.48460 | -79.73560 | 33867 ft | 431 kts | 298° |
| 2026-05-07 17:54 | 48.51472 | -79.81377 | 33867 ft | 430 kts | 298° |
| 2026-05-07 17:55 | 48.54472 | -79.89203 | 33852 ft | 430 kts | 298° |
| 2026-05-07 17:55 | 48.57465 | -79.97036 | 33870 ft | 431 kts | 298° |
| 2026-05-07 17:56 | 48.59950 | -80.03558 | 33866 ft | 431 kts | 298° |
| 2026-05-07 17:56 | 48.62942 | -80.11414 | 33874 ft | 431 kts | 298° |
| 2026-05-07 17:57 | 48.65927 | -80.19275 | 33874 ft | 430 kts | 298° |
| 2026-05-07 17:57 | 48.68898 | -80.27121 | 33873 ft | 430 kts | 298° |
| 2026-05-07 17:58 | 48.71845 | -80.34941 | 33863 ft | 430 kts | 298° |
| 2026-05-07 17:58 | 48.74802 | -80.42830 | 33869 ft | 430 kts | 298° |
| 2026-05-07 17:59 | 48.77754 | -80.50729 | 33868 ft | 430 kts | 298° |